sensor_id;sensor_type;location;lat;lon;timestamp;temperature;humidity
37446;DHT22;23307;51.136;14.942;2023-04-09T00:01:09;5.10;99.90
37446;DHT22;23307;51.136;14.942;2023-04-09T00:03:35;5.10;99.90
37446;DHT22;23307;51.136;14.942;2023-04-09T00:06:00;5.10;99.90
37446;DHT22;23307;51.136;14.942;2023-04-09T00:08:26;5.10;99.90
37446;DHT22;23307;51.136;14.942;2023-04-09T00:10:52;5.10;99.90
37446;DHT22;23307;51.136;14.942;2023-04-09T00:13:19;5.10;99.90
37446;DHT22;23307;51.136;14.942;2023-04-09T00:15:45;5.10;99.90
37446;DHT22;23307;51.136;14.942;2023-04-09T00:18:11;5.00;99.90
37446;DHT22;23307;51.136;14.942;2023-04-09T00:20:37;5.00;99.90
37446;DHT22;23307;51.136;14.942;2023-04-09T00:23:02;5.00;99.90
37446;DHT22;23307;51.136;14.942;2023-04-09T00:25:28;5.00;99.90
37446;DHT22;23307;51.136;14.942;2023-04-09T00:27:54;5.00;99.90
37446;DHT22;23307;51.136;14.942;2023-04-09T00:30:20;5.00;99.90
37446;DHT22;23307;51.136;14.942;2023-04-09T00:32:45;5.00;99.90
37446;DHT22;23307;51.136;14.942;2023-04-09T00:35:11;5.00;99.90
37446;DHT22;23307;51.136;14.942;2023-04-09T00:37:37;5.00;99.90
37446;DHT22;23307;51.136;14.942;2023-04-09T00:40:03;5.00;99.90
37446;DHT22;23307;51.136;14.942;2023-04-09T00:42:35;5.00;99.90
37446;DHT22;23307;51.136;14.942;2023-04-09T00:45:02;5.10;99.90
37446;DHT22;23307;51.136;14.942;2023-04-09T00:47:28;5.10;99.90
37446;DHT22;23307;51.136;14.942;2023-04-09T00:49:55;5.00;99.90
37446;DHT22;23307;51.136;14.942;2023-04-09T00:52:20;5.10;99.90
37446;DHT22;23307;51.136;14.942;2023-04-09T00:54:48;5.10;99.90
37446;DHT22;23307;51.136;14.942;2023-04-09T00:57:14;5.00;99.90
37446;DHT22;23307;51.136;14.942;2023-04-09T00:59:40;5.00;99.90
37446;DHT22;23307;51.136;14.942;2023-04-09T01:02:06;5.00;99.90
37446;DHT22;23307;51.136;14.942;2023-04-09T01:04:32;5.00;99.90
37446;DHT22;23307;51.136;14.942;2023-04-09T01:07:11;4.90;99.90
37446;DHT22;23307;51.136;14.942;2023-04-09T01:09:41;4.90;99.90
37446;DHT22;23307;51.136;14.942;2023-04-09T01:12:17;4.90;99.90
37446;DHT22;23307;51.136;14.942;2023-04-09T01:14:58;4.90;99.90
37446;DHT22;23307;51.136;14.942;2023-04-09T01:17:49;4.90;99.90
37446;DHT22;23307;51.136;14.942;2023-04-09T01:20:27;4.90;99.90
37446;DHT22;23307;51.136;14.942;2023-04-09T01:30:38;4.90;99.90
37446;DHT22;23307;51.136;14.942;2023-04-09T01:33:05;4.90;99.90
37446;DHT22;23307;51.136;14.942;2023-04-09T01:35:30;4.90;99.90
37446;DHT22;23307;51.136;14.942;2023-04-09T01:37:56;5.00;99.90
37446;DHT22;23307;51.136;14.942;2023-04-09T01:40:23;5.00;99.90
37446;DHT22;23307;51.136;14.942;2023-04-09T01:42:48;4.90;99.90
37446;DHT22;23307;51.136;14.942;2023-04-09T01:45:15;4.90;99.90
37446;DHT22;23307;51.136;14.942;2023-04-09T01:47:42;4.90;99.90
37446;DHT22;23307;51.136;14.942;2023-04-09T01:50:08;4.90;99.90
37446;DHT22;23307;51.136;14.942;2023-04-09T01:52:33;4.90;99.90
37446;DHT22;23307;51.136;14.942;2023-04-09T01:54:59;4.90;99.90
37446;DHT22;23307;51.136;14.942;2023-04-09T01:57:25;4.90;99.90
37446;DHT22;23307;51.136;14.942;2023-04-09T01:59:50;4.90;99.90
37446;DHT22;23307;51.136;14.942;2023-04-09T02:02:18;4.90;99.90
37446;DHT22;23307;51.136;14.942;2023-04-09T02:04:46;4.90;99.90
37446;DHT22;23307;51.136;14.942;2023-04-09T02:07:33;4.90;99.90
37446;DHT22;23307;51.136;14.942;2023-04-09T02:10:00;4.90;99.90
37446;DHT22;23307;51.136;14.942;2023-04-09T02:12:26;4.90;99.90
37446;DHT22;23307;51.136;14.942;2023-04-09T02:14:53;4.90;99.90
37446;DHT22;23307;51.136;14.942;2023-04-09T02:17:19;4.90;99.90
37446;DHT22;23307;51.136;14.942;2023-04-09T02:19:46;4.90;99.90
37446;DHT22;23307;51.136;14.942;2023-04-09T02:22:13;4.90;99.90
37446;DHT22;23307;51.136;14.942;2023-04-09T02:24:39;4.80;99.90
37446;DHT22;23307;51.136;14.942;2023-04-09T02:27:05;4.80;99.90
37446;DHT22;23307;51.136;14.942;2023-04-09T02:29:31;4.80;99.90
37446;DHT22;23307;51.136;14.942;2023-04-09T02:31:56;4.80;99.90
37446;DHT22;23307;51.136;14.942;2023-04-09T02:34:22;4.80;99.90
37446;DHT22;23307;51.136;14.942;2023-04-09T02:36:48;4.80;99.90
37446;DHT22;23307;51.136;14.942;2023-04-09T02:39:14;4.80;99.90
37446;DHT22;23307;51.136;14.942;2023-04-09T02:41:39;4.80;99.90
37446;DHT22;23307;51.136;14.942;2023-04-09T02:44:05;4.80;99.90
37446;DHT22;23307;51.136;14.942;2023-04-09T02:46:30;4.80;99.90
37446;DHT22;23307;51.136;14.942;2023-04-09T02:48:56;4.70;99.90
37446;DHT22;23307;51.136;14.942;2023-04-09T02:51:21;4.70;99.90
37446;DHT22;23307;51.136;14.942;2023-04-09T02:53:47;4.70;99.90
37446;DHT22;23307;51.136;14.942;2023-04-09T02:56:12;4.70;99.90
37446;DHT22;23307;51.136;14.942;2023-04-09T02:58:38;4.70;99.90
37446;DHT22;23307;51.136;14.942;2023-04-09T03:01:03;4.60;99.90
37446;DHT22;23307;51.136;14.942;2023-04-09T03:03:29;4.60;99.90
37446;DHT22;23307;51.136;14.942;2023-04-09T03:05:55;4.60;99.90
37446;DHT22;23307;51.136;14.942;2023-04-09T03:08:21;4.50;99.90
37446;DHT22;23307;51.136;14.942;2023-04-09T03:10:46;4.50;99.90
37446;DHT22;23307;51.136;14.942;2023-04-09T03:13:12;4.50;99.90
37446;DHT22;23307;51.136;14.942;2023-04-09T03:15:37;4.50;99.90
37446;DHT22;23307;51.136;14.942;2023-04-09T03:18:03;4.50;99.90
37446;DHT22;23307;51.136;14.942;2023-04-09T03:20:28;4.50;99.90
37446;DHT22;23307;51.136;14.942;2023-04-09T03:22:54;4.50;99.90
37446;DHT22;23307;51.136;14.942;2023-04-09T03:25:19;4.50;99.90
37446;DHT22;23307;51.136;14.942;2023-04-09T03:27:45;4.50;99.90
37446;DHT22;23307;51.136;14.942;2023-04-09T03:30:11;4.50;99.90
37446;DHT22;23307;51.136;14.942;2023-04-09T03:32:36;4.50;99.90
37446;DHT22;23307;51.136;14.942;2023-04-09T03:35:02;4.50;99.90
37446;DHT22;23307;51.136;14.942;2023-04-09T03:37:27;4.50;99.90
37446;DHT22;23307;51.136;14.942;2023-04-09T03:39:53;4.50;99.90
37446;DHT22;23307;51.136;14.942;2023-04-09T03:42:18;4.50;99.90
37446;DHT22;23307;51.136;14.942;2023-04-09T03:44:44;4.50;99.90
37446;DHT22;23307;51.136;14.942;2023-04-09T03:47:09;4.50;99.90
37446;DHT22;23307;51.136;14.942;2023-04-09T03:49:35;4.50;99.90
37446;DHT22;23307;51.136;14.942;2023-04-09T03:52:00;4.40;99.90
37446;DHT22;23307;51.136;14.942;2023-04-09T03:54:29;4.40;99.90
37446;DHT22;23307;51.136;14.942;2023-04-09T03:56:55;4.40;99.90
37446;DHT22;23307;51.136;14.942;2023-04-09T03:59:22;4.40;99.90
37446;DHT22;23307;51.136;14.942;2023-04-09T04:01:47;4.40;99.90
37446;DHT22;23307;51.136;14.942;2023-04-09T04:04:13;4.50;99.90
37446;DHT22;23307;51.136;14.942;2023-04-09T04:06:38;4.50;99.90
37446;DHT22;23307;51.136;14.942;2023-04-09T04:09:04;4.50;99.90
37446;DHT22;23307;51.136;14.942;2023-04-09T04:11:30;4.50;99.90
37446;DHT22;23307;51.136;14.942;2023-04-09T04:13:55;4.50;99.90
37446;DHT22;23307;51.136;14.942;2023-04-09T04:16:21;4.50;99.90
37446;DHT22;23307;51.136;14.942;2023-04-09T04:18:47;4.50;99.90
37446;DHT22;23307;51.136;14.942;2023-04-09T04:21:13;4.50;99.90
37446;DHT22;23307;51.136;14.942;2023-04-09T04:23:39;4.60;99.90
37446;DHT22;23307;51.136;14.942;2023-04-09T04:26:08;4.60;99.90
37446;DHT22;23307;51.136;14.942;2023-04-09T04:28:38;4.60;99.90
37446;DHT22;23307;51.136;14.942;2023-04-09T04:31:08;4.60;99.90
37446;DHT22;23307;51.136;14.942;2023-04-09T04:33:35;4.50;99.90
37446;DHT22;23307;51.136;14.942;2023-04-09T04:36:08;4.50;99.90
37446;DHT22;23307;51.136;14.942;2023-04-09T04:38:34;4.50;99.90
37446;DHT22;23307;51.136;14.942;2023-04-09T04:41:00;4.50;99.90
37446;DHT22;23307;51.136;14.942;2023-04-09T04:43:26;4.40;99.90
37446;DHT22;23307;51.136;14.942;2023-04-09T04:45:52;4.40;99.90
37446;DHT22;23307;51.136;14.942;2023-04-09T04:48:17;4.30;99.90
37446;DHT22;23307;51.136;14.942;2023-04-09T04:50:43;4.30;99.90
37446;DHT22;23307;51.136;14.942;2023-04-09T04:53:09;4.20;99.90
37446;DHT22;23307;51.136;14.942;2023-04-09T04:55:35;4.30;99.90
37446;DHT22;23307;51.136;14.942;2023-04-09T04:58:01;4.30;99.90
37446;DHT22;23307;51.136;14.942;2023-04-09T05:00:26;4.30;99.90
37446;DHT22;23307;51.136;14.942;2023-04-09T05:02:52;4.30;99.90
37446;DHT22;23307;51.136;14.942;2023-04-09T05:05:17;4.20;99.90
37446;DHT22;23307;51.136;14.942;2023-04-09T05:07:43;4.10;99.90
37446;DHT22;23307;51.136;14.942;2023-04-09T05:10:08;4.20;99.90
37446;DHT22;23307;51.136;14.942;2023-04-09T05:12:34;4.10;99.90
37446;DHT22;23307;51.136;14.942;2023-04-09T05:14:59;4.20;99.90
37446;DHT22;23307;51.136;14.942;2023-04-09T05:17:25;4.20;99.90
37446;DHT22;23307;51.136;14.942;2023-04-09T05:19:54;4.30;99.90
37446;DHT22;23307;51.136;14.942;2023-04-09T05:22:22;4.30;99.90
37446;DHT22;23307;51.136;14.942;2023-04-09T05:24:47;4.40;99.90
37446;DHT22;23307;51.136;14.942;2023-04-09T05:27:13;4.40;99.90
37446;DHT22;23307;51.136;14.942;2023-04-09T05:29:38;4.50;99.90
37446;DHT22;23307;51.136;14.942;2023-04-09T05:32:04;4.40;99.90
37446;DHT22;23307;51.136;14.942;2023-04-09T05:34:31;4.40;99.90
37446;DHT22;23307;51.136;14.942;2023-04-09T05:36:56;4.40;99.90
37446;DHT22;23307;51.136;14.942;2023-04-09T05:39:22;4.50;99.90
37446;DHT22;23307;51.136;14.942;2023-04-09T05:41:47;4.50;99.90
37446;DHT22;23307;51.136;14.942;2023-04-09T05:44:12;4.60;99.90
37446;DHT22;23307;51.136;14.942;2023-04-09T05:46:38;4.70;99.90
37446;DHT22;23307;51.136;14.942;2023-04-09T05:49:03;4.70;99.90
37446;DHT22;23307;51.136;14.942;2023-04-09T05:51:29;4.80;99.90
37446;DHT22;23307;51.136;14.942;2023-04-09T05:53:54;4.70;99.90
37446;DHT22;23307;51.136;14.942;2023-04-09T05:56:20;4.80;99.90
37446;DHT22;23307;51.136;14.942;2023-04-09T05:58:49;4.90;99.90
37446;DHT22;23307;51.136;14.942;2023-04-09T06:01:15;4.90;99.90
37446;DHT22;23307;51.136;14.942;2023-04-09T06:03:40;5.00;99.90
37446;DHT22;23307;51.136;14.942;2023-04-09T06:06:06;5.00;99.90
37446;DHT22;23307;51.136;14.942;2023-04-09T06:08:32;5.10;99.90
37446;DHT22;23307;51.136;14.942;2023-04-09T06:10:57;5.20;99.90
37446;DHT22;23307;51.136;14.942;2023-04-09T06:13:23;5.20;99.90
37446;DHT22;23307;51.136;14.942;2023-04-09T06:15:48;5.30;99.90
37446;DHT22;23307;51.136;14.942;2023-04-09T06:18:14;5.40;99.90
37446;DHT22;23307;51.136;14.942;2023-04-09T06:20:39;5.40;99.90
37446;DHT22;23307;51.136;14.942;2023-04-09T06:23:05;5.50;99.90
37446;DHT22;23307;51.136;14.942;2023-04-09T06:25:31;5.50;99.90
37446;DHT22;23307;51.136;14.942;2023-04-09T06:27:56;5.50;99.90
37446;DHT22;23307;51.136;14.942;2023-04-09T06:30:22;5.50;99.90
37446;DHT22;23307;51.136;14.942;2023-04-09T06:32:48;5.50;99.90
37446;DHT22;23307;51.136;14.942;2023-04-09T06:35:14;5.50;99.90
37446;DHT22;23307;51.136;14.942;2023-04-09T06:37:39;5.50;99.90
37446;DHT22;23307;51.136;14.942;2023-04-09T06:40:06;5.50;99.90
37446;DHT22;23307;51.136;14.942;2023-04-09T06:42:31;5.50;99.90
37446;DHT22;23307;51.136;14.942;2023-04-09T06:44:57;5.50;99.90
37446;DHT22;23307;51.136;14.942;2023-04-09T06:47:22;5.60;99.90
37446;DHT22;23307;51.136;14.942;2023-04-09T06:49:48;5.50;99.90
37446;DHT22;23307;51.136;14.942;2023-04-09T06:52:13;5.60;99.90
37446;DHT22;23307;51.136;14.942;2023-04-09T06:54:39;5.70;99.90
37446;DHT22;23307;51.136;14.942;2023-04-09T06:57:05;5.80;99.90
37446;DHT22;23307;51.136;14.942;2023-04-09T06:59:31;6.00;99.90
37446;DHT22;23307;51.136;14.942;2023-04-09T07:01:58;6.20;99.90
37446;DHT22;23307;51.136;14.942;2023-04-09T07:04:24;6.40;99.90
37446;DHT22;23307;51.136;14.942;2023-04-09T07:06:49;6.40;99.90
37446;DHT22;23307;51.136;14.942;2023-04-09T07:09:17;6.40;99.90
37446;DHT22;23307;51.136;14.942;2023-04-09T07:11:43;6.40;99.90
37446;DHT22;23307;51.136;14.942;2023-04-09T07:14:08;6.50;99.90
37446;DHT22;23307;51.136;14.942;2023-04-09T07:16:34;6.50;99.90
37446;DHT22;23307;51.136;14.942;2023-04-09T07:18:59;6.60;99.90
37446;DHT22;23307;51.136;14.942;2023-04-09T07:21:25;6.70;99.90
37446;DHT22;23307;51.136;14.942;2023-04-09T07:23:52;6.80;99.90
37446;DHT22;23307;51.136;14.942;2023-04-09T07:26:18;6.80;99.90
37446;DHT22;23307;51.136;14.942;2023-04-09T07:28:43;7.00;99.90
37446;DHT22;23307;51.136;14.942;2023-04-09T07:31:09;7.10;99.90
37446;DHT22;23307;51.136;14.942;2023-04-09T07:33:35;7.20;99.90
37446;DHT22;23307;51.136;14.942;2023-04-09T07:36:01;7.20;99.90
37446;DHT22;23307;51.136;14.942;2023-04-09T07:38:28;7.20;99.90
37446;DHT22;23307;51.136;14.942;2023-04-09T07:40:53;7.30;99.90
37446;DHT22;23307;51.136;14.942;2023-04-09T07:43:19;7.30;99.90
37446;DHT22;23307;51.136;14.942;2023-04-09T07:45:47;7.30;99.90
37446;DHT22;23307;51.136;14.942;2023-04-09T07:48:13;7.30;99.90
37446;DHT22;23307;51.136;14.942;2023-04-09T07:50:38;7.40;99.90
37446;DHT22;23307;51.136;14.942;2023-04-09T07:53:04;7.50;99.90
37446;DHT22;23307;51.136;14.942;2023-04-09T07:55:29;7.50;99.90
37446;DHT22;23307;51.136;14.942;2023-04-09T07:57:55;7.60;99.90
37446;DHT22;23307;51.136;14.942;2023-04-09T08:00:20;7.70;99.90
37446;DHT22;23307;51.136;14.942;2023-04-09T08:02:46;7.70;99.90
37446;DHT22;23307;51.136;14.942;2023-04-09T08:05:11;7.80;99.90
37446;DHT22;23307;51.136;14.942;2023-04-09T08:07:37;7.80;99.90
37446;DHT22;23307;51.136;14.942;2023-04-09T08:10:04;7.80;99.90
37446;DHT22;23307;51.136;14.942;2023-04-09T08:12:30;7.80;99.90
37446;DHT22;23307;51.136;14.942;2023-04-09T08:14:55;7.80;99.90
37446;DHT22;23307;51.136;14.942;2023-04-09T08:17:21;7.80;99.90
37446;DHT22;23307;51.136;14.942;2023-04-09T08:19:46;7.80;99.90
37446;DHT22;23307;51.136;14.942;2023-04-09T08:22:13;8.00;99.90
37446;DHT22;23307;51.136;14.942;2023-04-09T08:24:40;8.00;99.90
37446;DHT22;23307;51.136;14.942;2023-04-09T08:27:07;8.10;99.90
37446;DHT22;23307;51.136;14.942;2023-04-09T08:29:33;8.20;99.90
37446;DHT22;23307;51.136;14.942;2023-04-09T08:31:59;8.30;99.90
37446;DHT22;23307;51.136;14.942;2023-04-09T08:34:24;8.40;99.90
37446;DHT22;23307;51.136;14.942;2023-04-09T08:36:50;8.40;99.90
37446;DHT22;23307;51.136;14.942;2023-04-09T08:39:16;8.50;99.90
37446;DHT22;23307;51.136;14.942;2023-04-09T08:41:44;8.60;99.90
37446;DHT22;23307;51.136;14.942;2023-04-09T08:44:10;8.60;99.90
37446;DHT22;23307;51.136;14.942;2023-04-09T08:46:36;8.60;99.90
37446;DHT22;23307;51.136;14.942;2023-04-09T08:49:01;8.60;99.90
37446;DHT22;23307;51.136;14.942;2023-04-09T08:51:27;8.50;99.90
37446;DHT22;23307;51.136;14.942;2023-04-09T08:54:00;8.50;99.90
37446;DHT22;23307;51.136;14.942;2023-04-09T08:56:26;8.40;99.90
37446;DHT22;23307;51.136;14.942;2023-04-09T08:58:52;8.60;99.90
37446;DHT22;23307;51.136;14.942;2023-04-09T09:04:01;8.90;99.90
37446;DHT22;23307;51.136;14.942;2023-04-09T09:06:31;9.00;99.90
37446;DHT22;23307;51.136;14.942;2023-04-09T09:09:02;9.20;99.90
37446;DHT22;23307;51.136;14.942;2023-04-09T09:11:28;9.30;99.90
37446;DHT22;23307;51.136;14.942;2023-04-09T09:14:06;9.40;99.90
37446;DHT22;23307;51.136;14.942;2023-04-09T09:16:33;9.50;99.90
37446;DHT22;23307;51.136;14.942;2023-04-09T09:19:03;9.50;99.90
37446;DHT22;23307;51.136;14.942;2023-04-09T09:21:29;9.60;99.90
37446;DHT22;23307;51.136;14.942;2023-04-09T09:23:55;9.70;99.90
37446;DHT22;23307;51.136;14.942;2023-04-09T09:26:25;9.90;99.90
37446;DHT22;23307;51.136;14.942;2023-04-09T09:28:52;10.10;99.90
37446;DHT22;23307;51.136;14.942;2023-04-09T09:31:19;10.30;99.90
37446;DHT22;23307;51.136;14.942;2023-04-09T09:33:46;10.50;99.90
37446;DHT22;23307;51.136;14.942;2023-04-09T09:36:12;10.50;99.90
37446;DHT22;23307;51.136;14.942;2023-04-09T09:41:16;11.00;99.90
37446;DHT22;23307;51.136;14.942;2023-04-09T09:43:42;11.40;99.90
37446;DHT22;23307;51.136;14.942;2023-04-09T09:46:10;11.70;99.90
37446;DHT22;23307;51.136;14.942;2023-04-09T09:48:35;11.90;99.90
37446;DHT22;23307;51.136;14.942;2023-04-09T09:51:02;11.90;99.90
37446;DHT22;23307;51.136;14.942;2023-04-09T09:53:33;11.90;99.90
37446;DHT22;23307;51.136;14.942;2023-04-09T09:56:00;11.70;99.90
37446;DHT22;23307;51.136;14.942;2023-04-09T09:58:50;12.00;99.90
37446;DHT22;23307;51.136;14.942;2023-04-09T10:01:18;12.20;99.90
37446;DHT22;23307;51.136;14.942;2023-04-09T10:03:46;12.20;99.90
37446;DHT22;23307;51.136;14.942;2023-04-09T10:06:14;12.40;99.90
37446;DHT22;23307;51.136;14.942;2023-04-09T10:08:41;12.20;99.90
37446;DHT22;23307;51.136;14.942;2023-04-09T10:11:07;12.00;99.90
37446;DHT22;23307;51.136;14.942;2023-04-09T10:13:34;12.30;99.90
37446;DHT22;23307;51.136;14.942;2023-04-09T10:16:02;12.30;99.90
37446;DHT22;23307;51.136;14.942;2023-04-09T10:18:30;12.40;99.90
37446;DHT22;23307;51.136;14.942;2023-04-09T10:23:40;12.30;99.90
37446;DHT22;23307;51.136;14.942;2023-04-09T10:26:06;12.10;99.90
37446;DHT22;23307;51.136;14.942;2023-04-09T10:28:32;12.10;99.90
37446;DHT22;23307;51.136;14.942;2023-04-09T10:30:59;12.10;99.90
37446;DHT22;23307;51.136;14.942;2023-04-09T10:33:26;12.20;99.90
37446;DHT22;23307;51.136;14.942;2023-04-09T10:35:53;12.10;99.90
37446;DHT22;23307;51.136;14.942;2023-04-09T10:38:36;12.00;99.90
37446;DHT22;23307;51.136;14.942;2023-04-09T10:41:13;12.00;99.90
37446;DHT22;23307;51.136;14.942;2023-04-09T10:43:39;12.10;99.90
37446;DHT22;23307;51.136;14.942;2023-04-09T10:46:07;12.20;99.90
37446;DHT22;23307;51.136;14.942;2023-04-09T10:48:48;12.10;99.90
37446;DHT22;23307;51.136;14.942;2023-04-09T10:51:18;12.30;99.90
37446;DHT22;23307;51.136;14.942;2023-04-09T10:53:43;12.30;99.90
37446;DHT22;23307;51.136;14.942;2023-04-09T10:56:14;12.50;99.90
37446;DHT22;23307;51.136;14.942;2023-04-09T10:58:41;12.50;99.90
37446;DHT22;23307;51.136;14.942;2023-04-09T11:01:06;12.60;99.90
37446;DHT22;23307;51.136;14.942;2023-04-09T11:03:37;12.70;99.90
37446;DHT22;23307;51.136;14.942;2023-04-09T11:06:09;12.80;99.90
37446;DHT22;23307;51.136;14.942;2023-04-09T11:08:36;12.60;99.90
37446;DHT22;23307;51.136;14.942;2023-04-09T11:11:03;12.60;99.90
37446;DHT22;23307;51.136;14.942;2023-04-09T11:13:29;12.80;99.90
37446;DHT22;23307;51.136;14.942;2023-04-09T11:15:56;13.10;99.90
37446;DHT22;23307;51.136;14.942;2023-04-09T11:18:25;13.20;99.90
37446;DHT22;23307;51.136;14.942;2023-04-09T11:20:58;13.00;99.90
37446;DHT22;23307;51.136;14.942;2023-04-09T11:23:24;12.80;99.90
37446;DHT22;23307;51.136;14.942;2023-04-09T11:25:51;12.80;99.90
37446;DHT22;23307;51.136;14.942;2023-04-09T11:28:17;12.90;99.90
37446;DHT22;23307;51.136;14.942;2023-04-09T11:30:43;12.90;99.90
37446;DHT22;23307;51.136;14.942;2023-04-09T11:33:09;13.10;99.90
37446;DHT22;23307;51.136;14.942;2023-04-09T11:35:35;13.30;99.90
37446;DHT22;23307;51.136;14.942;2023-04-09T11:38:08;13.60;99.90
37446;DHT22;23307;51.136;14.942;2023-04-09T11:40:34;13.80;99.90
37446;DHT22;23307;51.136;14.942;2023-04-09T11:42:59;14.00;99.90
37446;DHT22;23307;51.136;14.942;2023-04-09T11:45:28;14.00;99.90
37446;DHT22;23307;51.136;14.942;2023-04-09T11:47:54;13.80;99.90
37446;DHT22;23307;51.136;14.942;2023-04-09T11:50:21;13.70;99.90
37446;DHT22;23307;51.136;14.942;2023-04-09T11:52:49;13.70;99.90
37446;DHT22;23307;51.136;14.942;2023-04-09T11:55:25;13.80;99.90
37446;DHT22;23307;51.136;14.942;2023-04-09T11:57:52;13.90;99.90
37446;DHT22;23307;51.136;14.942;2023-04-09T12:00:19;13.80;99.90
37446;DHT22;23307;51.136;14.942;2023-04-09T12:02:46;13.90;99.90
37446;DHT22;23307;51.136;14.942;2023-04-09T12:05:29;14.00;99.30
37446;DHT22;23307;51.136;14.942;2023-04-09T12:08:00;13.60;99.70
37446;DHT22;23307;51.136;14.942;2023-04-09T12:10:28;13.60;99.90
37446;DHT22;23307;51.136;14.942;2023-04-09T12:12:54;13.40;99.90
37446;DHT22;23307;51.136;14.942;2023-04-09T12:15:21;13.40;99.90
37446;DHT22;23307;51.136;14.942;2023-04-09T12:17:49;13.50;99.90
37446;DHT22;23307;51.136;14.942;2023-04-09T12:20:38;13.50;99.90
37446;DHT22;23307;51.136;14.942;2023-04-09T12:23:04;13.70;99.90
37446;DHT22;23307;51.136;14.942;2023-04-09T12:25:32;14.00;99.90
37446;DHT22;23307;51.136;14.942;2023-04-09T12:27:58;14.20;99.90
37446;DHT22;23307;51.136;14.942;2023-04-09T12:30:24;14.40;99.90
37446;DHT22;23307;51.136;14.942;2023-04-09T12:32:50;14.60;99.90
37446;DHT22;23307;51.136;14.942;2023-04-09T12:35:16;14.90;99.60
37446;DHT22;23307;51.136;14.942;2023-04-09T12:37:42;14.90;98.00
37446;DHT22;23307;51.136;14.942;2023-04-09T12:40:08;15.00;99.40
37446;DHT22;23307;51.136;14.942;2023-04-09T12:42:33;15.20;99.70
37446;DHT22;23307;51.136;14.942;2023-04-09T12:44:59;15.40;98.00
37446;DHT22;23307;51.136;14.942;2023-04-09T12:47:25;15.30;96.00
37446;DHT22;23307;51.136;14.942;2023-04-09T12:49:52;15.40;97.00
37446;DHT22;23307;51.136;14.942;2023-04-09T12:52:18;15.20;96.40
37446;DHT22;23307;51.136;14.942;2023-04-09T12:54:43;15.10;96.10
37446;DHT22;23307;51.136;14.942;2023-04-09T12:57:09;15.00;96.40
37446;DHT22;23307;51.136;14.942;2023-04-09T12:59:34;15.00;97.50
37446;DHT22;23307;51.136;14.942;2023-04-09T13:02:00;15.00;96.70
37446;DHT22;23307;51.136;14.942;2023-04-09T13:04:25;14.90;96.80
37446;DHT22;23307;51.136;14.942;2023-04-09T13:06:51;14.90;97.60
37446;DHT22;23307;51.136;14.942;2023-04-09T13:09:16;15.00;96.10
37446;DHT22;23307;51.136;14.942;2023-04-09T13:11:42;14.80;96.70
37446;DHT22;23307;51.136;14.942;2023-04-09T13:14:07;14.80;97.10
37446;DHT22;23307;51.136;14.942;2023-04-09T13:16:40;14.70;96.60
37446;DHT22;23307;51.136;14.942;2023-04-09T13:19:06;14.70;97.40
37446;DHT22;23307;51.136;14.942;2023-04-09T13:21:32;14.90;98.20
37446;DHT22;23307;51.136;14.942;2023-04-09T13:23:58;15.00;96.60
37446;DHT22;23307;51.136;14.942;2023-04-09T13:26:23;15.00;97.60
37446;DHT22;23307;51.136;14.942;2023-04-09T13:28:49;15.10;97.80
37446;DHT22;23307;51.136;14.942;2023-04-09T13:31:16;14.90;95.80
37446;DHT22;23307;51.136;14.942;2023-04-09T13:33:41;14.70;96.30
37446;DHT22;23307;51.136;14.942;2023-04-09T13:36:07;14.50;96.40
37446;DHT22;23307;51.136;14.942;2023-04-09T13:38:32;14.40;97.60
37446;DHT22;23307;51.136;14.942;2023-04-09T13:40:58;14.70;98.90
37446;DHT22;23307;51.136;14.942;2023-04-09T13:43:23;14.90;98.40
37446;DHT22;23307;51.136;14.942;2023-04-09T13:45:52;14.90;96.60
37446;DHT22;23307;51.136;14.942;2023-04-09T13:48:19;14.90;97.00
37446;DHT22;23307;51.136;14.942;2023-04-09T13:50:45;14.90;95.00
37446;DHT22;23307;51.136;14.942;2023-04-09T13:53:10;14.90;95.80
37446;DHT22;23307;51.136;14.942;2023-04-09T13:55:37;15.10;96.90
37446;DHT22;23307;51.136;14.942;2023-04-09T13:58:02;15.20;97.00
37446;DHT22;23307;51.136;14.942;2023-04-09T14:00:28;15.40;96.70
37446;DHT22;23307;51.136;14.942;2023-04-09T14:02:53;15.50;96.50
37446;DHT22;23307;51.136;14.942;2023-04-09T14:05:19;15.70;96.40
37446;DHT22;23307;51.136;14.942;2023-04-09T14:07:44;15.80;95.20
37446;DHT22;23307;51.136;14.942;2023-04-09T14:10:10;15.70;93.60
37446;DHT22;23307;51.136;14.942;2023-04-09T14:12:35;15.80;94.80
37446;DHT22;23307;51.136;14.942;2023-04-09T14:15:01;15.80;94.30
37446;DHT22;23307;51.136;14.942;2023-04-09T14:17:26;15.80;93.40
37446;DHT22;23307;51.136;14.942;2023-04-09T14:19:52;15.80;93.70
37446;DHT22;23307;51.136;14.942;2023-04-09T14:22:17;15.90;93.80
37446;DHT22;23307;51.136;14.942;2023-04-09T14:24:43;15.90;93.40
37446;DHT22;23307;51.136;14.942;2023-04-09T14:27:08;15.70;92.60
37446;DHT22;23307;51.136;14.942;2023-04-09T14:29:34;15.60;93.10
37446;DHT22;23307;51.136;14.942;2023-04-09T14:31:59;15.50;93.50
37446;DHT22;23307;51.136;14.942;2023-04-09T14:34:26;15.40;93.20
37446;DHT22;23307;51.136;14.942;2023-04-09T14:36:51;15.30;93.90
37446;DHT22;23307;51.136;14.942;2023-04-09T14:39:17;15.20;94.20
37446;DHT22;23307;51.136;14.942;2023-04-09T14:41:43;15.20;94.60
37446;DHT22;23307;51.136;14.942;2023-04-09T14:44:08;15.30;94.50
37446;DHT22;23307;51.136;14.942;2023-04-09T14:46:35;15.30;94.60
37446;DHT22;23307;51.136;14.942;2023-04-09T14:49:01;15.30;94.40
37446;DHT22;23307;51.136;14.942;2023-04-09T14:51:27;15.20;94.40
37446;DHT22;23307;51.136;14.942;2023-04-09T14:53:54;15.10;94.30
37446;DHT22;23307;51.136;14.942;2023-04-09T14:56:20;15.00;94.10
37446;DHT22;23307;51.136;14.942;2023-04-09T14:58:46;14.90;94.30
37446;DHT22;23307;51.136;14.942;2023-04-09T15:01:11;14.80;94.70
37446;DHT22;23307;51.136;14.942;2023-04-09T15:03:37;14.70;94.60
37446;DHT22;23307;51.136;14.942;2023-04-09T15:06:02;14.60;95.10
37446;DHT22;23307;51.136;14.942;2023-04-09T15:08:28;14.60;95.60
37446;DHT22;23307;51.136;14.942;2023-04-09T15:10:53;14.50;95.80
37446;DHT22;23307;51.136;14.942;2023-04-09T15:13:19;14.50;96.30
37446;DHT22;23307;51.136;14.942;2023-04-09T15:15:44;14.40;96.80
37446;DHT22;23307;51.136;14.942;2023-04-09T15:18:10;14.40;97.00
37446;DHT22;23307;51.136;14.942;2023-04-09T15:20:37;14.30;97.30
37446;DHT22;23307;51.136;14.942;2023-04-09T15:23:02;14.30;97.60
37446;DHT22;23307;51.136;14.942;2023-04-09T15:25:28;14.30;98.20
37446;DHT22;23307;51.136;14.942;2023-04-09T15:27:53;14.30;98.50
37446;DHT22;23307;51.136;14.942;2023-04-09T15:30:18;14.30;98.30
37446;DHT22;23307;51.136;14.942;2023-04-09T15:32:44;14.30;98.30
37446;DHT22;23307;51.136;14.942;2023-04-09T15:35:10;14.20;98.50
37446;DHT22;23307;51.136;14.942;2023-04-09T15:37:37;14.20;98.60